Time;durP1;ratioP1;P1;durP2;ratioP2;P2;SDS_P1;SDS_P2;PMS_P1;PMS_P2;Temp;Humidity;BMP_temperature;BMP_pressure;BME280_temperature;BME280_humidity;BME280_pressure;Samples;Min_cycle;Max_cycle;Signal;HPM_P1;HPM_P2
2021/08/30 05:02:43;;;;;;;23.10;20.43;;;;;;;;;;5071593;22;20308;-66
2021/08/30 05:05:28;;;;;;;26.77;20.20;;;;;;;;;;5007223;28;20207;-66
2021/08/30 05:08:13;;;;;;;28.13;21.97;;;;;;;;;;5007839;28;20226;-66
2021/08/30 05:10:58;;;;;;;25.53;20.57;;;;;;;;;;5002350;28;20236;-66
2021/08/30 05:13:43;;;;;;;26.17;21.67;;;;;;;;;;4988186;28;20203;-65
2021/08/30 05:16:30;;;;;;;22.73;20.40;;;;;;;;;;4987992;28;20218;-65
2021/08/30 05:19:16;;;;;;;25.10;20.37;;;;;;;;;;4988228;28;20219;-66
2021/08/30 05:22:01;;;;;;;26.73;21.40;;;;;;;;;;4988041;28;20364;-66
2021/08/30 05:24:47;;;;;;;25.63;19.07;;;;;;;;;;4989443;28;20400;-66
2021/08/30 05:27:32;;;;;;;31.83;22.00;;;;;;;;;;4991573;28;20212;-65
2021/08/30 05:30:16;;;;;;;28.33;21.63;;;;;;;;;;4991432;28;20211;-66
2021/08/30 05:33:01;;;;;;;27.80;21.20;;;;;;;;;;4991744;28;20243;-66
2021/08/30 05:35:48;;;;;;;25.37;20.33;;;;;;;;;;4990738;28;20215;-66
2021/08/30 05:38:33;;;;;;;27.73;20.10;;;;;;;;;;4991310;28;20207;-66
2021/08/30 05:41:17;;;;;;;28.42;23.52;;;;;;;;;;4989933;28;20413;-64
2021/08/30 05:44:02;;;;;;;25.03;21.70;;;;;;;;;;4990223;28;20231;-64
2021/08/30 05:46:48;;;;;;;27.60;21.73;;;;;;;;;;4991166;28;20215;-66
2021/08/30 05:49:33;;;;;;;26.53;21.53;;;;;;;;;;4991067;28;20626;-66
2021/08/30 05:52:20;;;;;;;28.10;20.80;;;;;;;;;;4990838;28;20759;-66
2021/08/30 05:55:05;;;;;;;27.13;20.13;;;;;;;;;;4990473;28;20207;-66
2021/08/30 05:57:50;;;;;;;26.87;21.10;;;;;;;;;;4990822;28;20211;-66
2021/08/30 06:00:35;;;;;;;23.13;20.47;;;;;;;;;;4990520;28;20638;-66
2021/08/30 06:03:20;;;;;;;27.27;20.67;;;;;;;;;;4990661;28;20218;-65
2021/08/30 06:06:05;;;;;;;28.20;20.50;;;;;;;;;;4990121;28;20207;-66
2021/08/30 06:08:51;;;;;;;23.80;19.47;;;;;;;;;;4990884;28;20208;-66
2021/08/30 06:11:36;;;;;;;25.80;21.03;;;;;;;;;;4990327;28;20232;-66
2021/08/30 06:14:21;;;;;;;25.80;20.17;;;;;;;;;;4990082;28;20293;-66
2021/08/30 06:17:06;;;;;;;26.00;20.87;;;;;;;;;;4990734;28;20612;-66
2021/08/30 06:19:51;;;;;;;26.50;20.53;;;;;;;;;;4990698;28;20215;-66
2021/08/30 06:22:35;;;;;;;26.57;20.17;;;;;;;;;;4990477;28;20273;-66
2021/08/30 06:25:22;;;;;;;26.53;20.00;;;;;;;;;;4989621;28;20207;-65
2021/08/30 06:28:07;;;;;;;21.90;19.00;;;;;;;;;;4990480;28;20206;-66
2021/08/30 06:30:52;;;;;;;28.30;19.97;;;;;;;;;;4990495;28;20223;-66
2021/08/30 06:33:37;;;;;;;27.63;20.77;;;;;;;;;;4990391;28;20269;-66
2021/08/30 06:36:22;;;;;;;23.07;19.50;;;;;;;;;;4989335;28;20199;-66
2021/08/30 06:39:07;;;;;;;23.30;20.00;;;;;;;;;;4990536;28;20227;-66
2021/08/30 06:41:53;;;;;;;27.90;19.53;;;;;;;;;;4990168;28;20231;-65
2021/08/30 06:44:38;;;;;;;25.63;20.80;;;;;;;;;;4989306;28;20223;-66
2021/08/30 06:47:23;;;;;;;27.23;22.67;;;;;;;;;;4989319;28;20504;-65
2021/08/30 06:50:08;;;;;;;23.10;20.37;;;;;;;;;;4989932;28;20707;-66
2021/08/30 06:52:53;;;;;;;24.90;19.53;;;;;;;;;;4990361;28;20329;-66
2021/08/30 06:55:38;;;;;;;25.10;20.07;;;;;;;;;;4989381;28;20214;-66
2021/08/30 06:58:24;;;;;;;26.40;20.67;;;;;;;;;;4990117;28;20325;-66
2021/08/30 07:01:09;;;;;;;23.77;19.80;;;;;;;;;;4989920;28;20235;-66
2021/08/30 07:03:54;;;;;;;25.07;19.87;;;;;;;;;;4989603;28;20231;-66
2021/08/30 07:06:39;;;;;;;24.23;20.77;;;;;;;;;;4989775;28;20713;-65
2021/08/30 07:09:24;;;;;;;27.42;23.27;;;;;;;;;;4988784;28;20776;-66
2021/08/30 07:12:09;;;;;;;23.97;20.33;;;;;;;;;;4989804;28;20226;-66
2021/08/30 07:14:55;;;;;;;23.00;20.60;;;;;;;;;;4989107;28;20207;-65
2021/08/30 07:17:40;;;;;;;26.00;20.47;;;;;;;;;;4989398;28;20289;-66
2021/08/30 07:20:25;;;;;;;23.50;20.40;;;;;;;;;;4989707;28;20211;-66
2021/08/30 07:23:11;;;;;;;23.53;20.60;;;;;;;;;;4989372;28;20227;-66
2021/08/30 07:25:56;;;;;;;23.90;20.03;;;;;;;;;;4988938;28;20238;-66
2021/08/30 07:28:41;;;;;;;27.60;20.73;;;;;;;;;;4989426;28;20691;-66
2021/08/30 07:31:27;;;;;;;21.73;19.23;;;;;;;;;;4989513;28;20228;-65
2021/08/30 07:34:12;;;;;;;21.27;18.73;;;;;;;;;;4988996;28;20387;-66
2021/08/30 07:36:57;;;;;;;22.63;19.43;;;;;;;;;;4989297;28;20211;-66
2021/08/30 07:39:42;;;;;;;24.43;18.73;;;;;;;;;;4989423;28;20617;-66
2021/08/30 07:42:27;;;;;;;21.77;18.53;;;;;;;;;;4989466;28;20235;-65
2021/08/30 07:45:12;;;;;;;20.40;18.30;;;;;;;;;;4988835;28;20351;-66
2021/08/30 07:47:59;;;;;;;21.80;18.07;;;;;;;;;;4988313;28;20207;-66
2021/08/30 07:50:44;;;;;;;22.70;18.43;;;;;;;;;;4989135;28;20766;-66
2021/08/30 07:53:29;;;;;;;22.23;17.87;;;;;;;;;;4989289;28;20207;-66
2021/08/30 07:56:14;;;;;;;23.37;17.50;;;;;;;;;;4988991;28;20728;-66
2021/08/30 07:58:59;;;;;;;20.47;18.27;;;;;;;;;;4989272;28;20207;-66
2021/08/30 08:01:44;;;;;;;19.53;17.47;;;;;;;;;;4989105;28;20317;-66
2021/08/30 08:04:30;;;;;;;22.07;18.07;;;;;;;;;;4988209;28;20231;-66
2021/08/30 08:07:15;;;;;;;19.07;17.07;;;;;;;;;;4989151;28;20351;-66
2021/08/30 08:10:00;;;;;;;19.00;17.00;;;;;;;;;;4989090;28;20574;-65
2021/08/30 08:12:45;;;;;;;18.83;16.90;;;;;;;;;;4988851;28;20203;-66
2021/08/30 08:15:30;;;;;;;19.70;17.65;;;;;;;;;;4987791;28;20790;-66
2021/08/30 08:18:15;;;;;;;19.90;16.50;;;;;;;;;;4989047;28;20211;-66
2021/08/30 08:21:04;;;;;;;20.50;16.73;;;;;;;;;;4989133;28;20297;-65
2021/08/30 08:23:49;;;;;;;19.00;16.17;;;;;;;;;;4988560;28;20716;-65
2021/08/30 08:26:33;;;;;;;18.17;15.80;;;;;;;;;;4989010;28;20203;-65
2021/08/30 08:29:18;;;;;;;17.73;15.83;;;;;;;;;;4989154;28;20716;-66
2021/08/30 08:32:04;;;;;;;18.50;16.37;;;;;;;;;;4989000;28;20269;-66
2021/08/30 08:34:49;;;;;;;17.23;15.53;;;;;;;;;;4988203;28;20249;-66
2021/08/30 08:37:35;;;;;;;17.37;15.60;;;;;;;;;;4988691;28;20227;-65
2021/08/30 08:40:20;;;;;;;16.53;14.83;;;;;;;;;;4988541;28;20211;-66
2021/08/30 08:43:10;;;;;;;17.93;14.93;;;;;;;;;;4988611;28;20210;-66
2021/08/30 08:45:55;;;;;;;15.67;14.03;;;;;;;;;;4987871;28;20328;-65
2021/08/30 08:48:40;;;;;;;18.13;14.17;;;;;;;;;;4988533;28;20229;-66
2021/08/30 08:51:25;;;;;;;16.87;12.43;;;;;;;;;;4988448;28;20249;-65
2021/08/30 08:54:13;;;;;;;13.47;12.10;;;;;;;;;;4987734;28;20219;-66
2021/08/30 08:56:57;;;;;;;12.53;11.30;;;;;;;;;;4988161;28;20207;-66
2021/08/30 08:59:54;;;;;;;11.63;10.43;;;;;;;;;;4990268;28;20412;-66
2021/08/30 09:02:40;;;;;;;11.93;10.67;;;;;;;;;;4991741;28;20232;-66
2021/08/30 09:05:26;;;;;;;11.97;10.77;;;;;;;;;;4991000;28;20713;-66
2021/08/30 09:08:29;;;;;;;11.97;10.70;;;;;;;;;;4991750;28;20213;-66
2021/08/30 09:11:16;;;;;;;10.17;9.13;;;;;;;;;;4991744;28;20228;-66
2021/08/30 09:14:01;;;;;;;10.80;9.73;;;;;;;;;;4991294;28;20200;-65
2021/08/30 09:16:47;;;;;;;11.97;9.97;;;;;;;;;;4991706;28;20427;-66
2021/08/30 09:19:33;;;;;;;10.30;9.23;;;;;;;;;;4991254;28;20199;-66
2021/08/30 09:22:27;;;;;;;10.65;9.63;;;;;;;;;;4991442;28;20406;-66
2021/08/30 09:25:14;;;;;;;10.80;9.50;;;;;;;;;;4990479;28;20244;-66
2021/08/30 09:28:00;;;;;;;10.30;9.30;;;;;;;;;;4991392;28;20211;-66
2021/08/30 09:30:53;;;;;;;14.63;10.20;;;;;;;;;;4991096;28;20642;-66
2021/08/30 09:33:46;;;;;;;11.57;10.10;;;;;;;;;;4991252;28;20262;-66
2021/08/30 09:36:41;;;;;;;10.80;9.70;;;;;;;;;;4991321;28;20759;-66
2021/08/30 09:39:26;;;;;;;11.27;9.77;;;;;;;;;;4991429;28;20213;-66
2021/08/30 09:42:12;;;;;;;9.80;8.87;;;;;;;;;;4990853;28;20228;-66
2021/08/30 09:45:07;;;;;;;10.17;9.17;;;;;;;;;;4990214;28;20226;-66
2021/08/30 09:47:54;;;;;;;10.20;9.20;;;;;;;;;;4991153;28;20243;-66
2021/08/30 09:50:42;;;;;;;10.20;9.20;;;;;;;;;;4991127;28;20239;-66
2021/08/30 09:53:27;;;;;;;10.17;9.13;;;;;;;;;;4990692;28;20209;-65
2021/08/30 09:56:12;;;;;;;10.20;9.03;;;;;;;;;;4990318;28;20203;-66
2021/08/30 09:58:57;;;;;;;10.47;9.43;;;;;;;;;;4990850;28;20251;-66
2021/08/30 10:01:43;;;;;;;10.37;9.33;;;;;;;;;;4990718;28;20601;-66
2021/08/30 10:04:28;;;;;;;9.87;8.40;;;;;;;;;;4990290;28;20718;-66
2021/08/30 10:07:14;;;;;;;10.30;9.35;;;;;;;;;;4990273;28;21034;-66
2021/08/30 10:09:59;;;;;;;9.73;8.83;;;;;;;;;;4990214;28;20209;-66
2021/08/30 10:12:45;;;;;;;11.37;9.57;;;;;;;;;;4991028;28;20218;-66
2021/08/30 10:15:32;;;;;;;11.20;9.20;;;;;;;;;;4989717;28;20304;-67
2021/08/30 10:18:21;;;;;;;10.10;9.17;;;;;;;;;;4984959;28;20220;-68
2021/08/30 10:21:14;;;;;;;10.43;9.43;;;;;;;;;;4990206;28;20307;-67
2021/08/30 10:23:59;;;;;;;10.00;9.07;;;;;;;;;;4985995;28;20732;-67
2021/08/30 10:26:45;;;;;;;10.07;9.17;;;;;;;;;;4972666;28;20237;-67
2021/08/30 10:29:34;;;;;;;9.93;8.90;;;;;;;;;;4989848;28;20388;-68
2021/08/30 10:32:20;;;;;;;10.67;9.57;;;;;;;;;;4979990;28;20234;-68
2021/08/30 10:35:15;;;;;;;11.20;10.10;;;;;;;;;;4987234;28;20409;-67
2021/08/30 10:38:01;;;;;;;10.00;8.93;;;;;;;;;;4984164;28;20211;-67
2021/08/30 10:40:50;;;;;;;9.43;8.53;;;;;;;;;;4988893;28;20233;-68
2021/08/30 10:43:42;;;;;;;9.63;8.70;;;;;;;;;;4987507;28;20218;-68
2021/08/30 10:46:36;;;;;;;8.87;8.10;;;;;;;;;;4989341;28;20242;-68
2021/08/30 10:49:22;;;;;;;8.23;7.50;;;;;;;;;;4989959;28;20207;-68
2021/08/30 10:52:11;;;;;;;9.30;8.50;;;;;;;;;;4989766;28;20234;-67
2021/08/30 10:54:57;;;;;;;8.70;7.80;;;;;;;;;;4989295;28;20564;-66
2021/08/30 10:57:42;;;;;;;8.47;7.77;;;;;;;;;;4989672;28;20222;-66
2021/08/30 11:00:30;;;;;;;9.00;8.17;;;;;;;;;;4989346;28;20609;-66
2021/08/30 11:03:25;;;;;;;8.30;7.43;;;;;;;;;;4988904;28;20756;-67
2021/08/30 11:06:11;;;;;;;8.27;7.63;;;;;;;;;;4989168;28;20210;-67
2021/08/30 11:08:58;;;;;;;7.87;7.27;;;;;;;;;;4989713;28;20215;-66
2021/08/30 11:11:43;;;;;;;8.33;7.43;;;;;;;;;;4989486;28;20281;-66
2021/08/30 11:14:28;;;;;;;8.20;7.40;;;;;;;;;;4986437;28;20321;-67
2021/08/30 11:17:13;;;;;;;8.43;7.63;;;;;;;;;;4988221;28;20474;-68
2021/08/30 11:19:59;;;;;;;7.13;6.53;;;;;;;;;;5025143;28;20585;-67
2021/08/30 11:22:51;;;;;;;6.40;6.00;;;;;;;;;;4990679;28;20223;-66
2021/08/30 11:25:38;;;;;;;6.90;6.40;;;;;;;;;;4989794;28;20269;-66
2021/08/30 11:28:22;;;;;;;6.87;6.27;;;;;;;;;;4988274;28;20215;-66
2021/08/30 11:31:07;;;;;;;9.90;8.60;;;;;;;;;;4989046;28;20369;-66
2021/08/30 11:33:52;;;;;;;9.87;8.97;;;;;;;;;;4989181;28;20203;-66
2021/08/30 11:36:44;;;;;;;8.87;7.73;;;;;;;;;;4986996;28;20574;-66
2021/08/30 11:39:31;;;;;;;10.40;9.40;;;;;;;;;;4985911;28;20458;-66
2021/08/30 11:42:19;;;;;;;9.40;8.50;;;;;;;;;;4985209;28;20588;-66
2021/08/30 11:45:05;;;;;;;9.70;8.70;;;;;;;;;;4986768;28;20783;-67
2021/08/30 11:47:52;;;;;;;9.80;8.10;;;;;;;;;;4988154;28;20207;-67
2021/08/30 11:50:39;;;;;;;9.60;8.70;;;;;;;;;;4989178;28;20343;-67
2021/08/30 11:53:25;;;;;;;8.27;7.57;;;;;;;;;;4988927;28;20214;-67
2021/08/30 11:56:13;;;;;;;8.30;7.50;;;;;;;;;;4987032;28;20707;-67
2021/08/30 11:59:01;;;;;;;7.83;7.03;;;;;;;;;;4980641;28;20338;-67
2021/08/30 12:01:46;;;;;;;7.97;7.27;;;;;;;;;;5008159;28;20268;-67
2021/08/30 12:04:32;;;;;;;7.70;7.00;;;;;;;;;;4989947;28;20665;-68
2021/08/30 12:07:17;;;;;;;7.60;6.90;;;;;;;;;;4986468;28;20759;-67
2021/08/30 12:10:03;;;;;;;7.17;6.47;;;;;;;;;;4994395;28;20217;-67
2021/08/30 12:12:54;;;;;;;8.90;7.90;;;;;;;;;;4983328;28;20219;-67
2021/08/30 12:15:40;;;;;;;7.07;6.53;;;;;;;;;;4985045;28;20211;-68
2021/08/30 12:18:26;;;;;;;7.73;7.03;;;;;;;;;;4980534;28;20219;-64
2021/08/30 12:21:11;;;;;;;7.73;6.93;;;;;;;;;;4991141;28;20558;-64
2021/08/30 12:23:56;;;;;;;7.03;6.33;;;;;;;;;;4985523;28;20309;-63
2021/08/30 12:26:41;;;;;;;6.23;5.73;;;;;;;;;;4984020;28;20583;-65
2021/08/30 12:29:25;;;;;;;6.80;6.03;;;;;;;;;;4978855;28;20256;-64
2021/08/30 12:32:12;;;;;;;6.60;5.50;;;;;;;;;;4997705;28;20734;-65
2021/08/30 12:34:57;;;;;;;6.07;5.37;;;;;;;;;;4986570;28;20219;-65
2021/08/30 12:37:41;;;;;;;6.23;5.73;;;;;;;;;;4987802;28;20219;-65
2021/08/30 12:40:27;;;;;;;6.30;5.80;;;;;;;;;;4983960;28;20850;-65
2021/08/30 12:43:12;;;;;;;6.40;5.90;;;;;;;;;;4979612;28;20249;-65
2021/08/30 12:45:57;;;;;;;7.10;6.50;;;;;;;;;;4986439;28;20442;-65
2021/08/30 12:48:44;;;;;;;6.77;6.13;;;;;;;;;;4988626;28;20265;-65
2021/08/30 12:51:29;;;;;;;6.83;6.07;;;;;;;;;;4987478;28;20231;-65
2021/08/30 12:54:13;;;;;;;7.20;6.60;;;;;;;;;;4985543;28;20215;-65
2021/08/30 12:56:58;;;;;;;7.97;7.30;;;;;;;;;;5014134;28;20205;-64
2021/08/30 12:59:43;;;;;;;6.87;6.17;;;;;;;;;;4975160;28;20216;-65
2021/08/30 13:02:28;;;;;;;7.40;6.57;;;;;;;;;;4999655;28;20281;-62
2021/08/30 13:05:15;;;;;;;6.57;5.97;;;;;;;;;;4974100;28;20223;-65
2021/08/30 13:08:00;;;;;;;7.23;6.10;;;;;;;;;;4985979;28;20352;-65
2021/08/30 13:10:45;;;;;;;6.77;6.17;;;;;;;;;;4968224;28;20232;-65
2021/08/30 13:13:30;;;;;;;7.03;6.50;;;;;;;;;;4968112;28;20228;-65
2021/08/30 13:16:15;;;;;;;6.70;6.10;;;;;;;;;;4968450;28;20311;-65
2021/08/30 13:19:00;;;;;;;6.97;6.40;;;;;;;;;;4968973;28;20207;-65
2021/08/30 13:21:46;;;;;;;6.10;5.60;;;;;;;;;;4968741;28;20231;-65
2021/08/30 13:24:31;;;;;;;6.50;6.00;;;;;;;;;;4968214;28;20220;-65
2021/08/30 13:27:16;;;;;;;7.00;6.40;;;;;;;;;;4968912;28;20319;-65
2021/08/30 13:30:01;;;;;;;6.60;6.13;;;;;;;;;;4968652;28;20282;-65
2021/08/30 13:32:46;;;;;;;6.43;5.83;;;;;;;;;;4968960;28;20578;-65
2021/08/30 13:35:31;;;;;;;6.97;6.30;;;;;;;;;;4979530;28;20211;-65
2021/08/30 13:38:18;;;;;;;6.63;6.13;;;;;;;;;;4987540;28;20215;-65
2021/08/30 13:41:03;;;;;;;6.93;6.13;;;;;;;;;;4985324;28;20239;-65
2021/08/30 13:43:48;;;;;;;6.40;5.93;;;;;;;;;;4984355;28;20729;-65
2021/08/30 13:46:33;;;;;;;6.00;5.60;;;;;;;;;;4988939;28;20342;-65
2021/08/30 13:49:17;;;;;;;6.00;5.40;;;;;;;;;;5048502;28;20207;-65
2021/08/30 13:52:03;;;;;;;6.88;6.30;;;;;;;;;;5020650;28;20421;-65
2021/08/30 13:54:50;;;;;;;7.70;6.97;;;;;;;;;;4990375;28;20313;-65
2021/08/30 13:57:37;;;;;;;7.17;6.67;;;;;;;;;;4989313;28;20341;-64
2021/08/30 14:00:21;;;;;;;7.50;6.80;;;;;;;;;;4971366;28;20211;-65
2021/08/30 14:03:06;;;;;;;7.30;6.57;;;;;;;;;;4982956;28;20303;-64
2021/08/30 14:05:51;;;;;;;5.57;5.07;;;;;;;;;;4988042;28;20719;-64
2021/08/30 14:08:36;;;;;;;5.77;5.27;;;;;;;;;;4991918;28;20227;-65
2021/08/30 14:11:22;;;;;;;5.43;4.93;;;;;;;;;;4971276;28;20235;-64
2021/08/30 14:14:09;;;;;;;5.30;4.90;;;;;;;;;;4970552;28;20710;-64
2021/08/30 14:16:54;;;;;;;5.87;5.30;;;;;;;;;;4971072;28;20204;-65
2021/08/30 14:19:39;;;;;;;6.13;5.63;;;;;;;;;;4971153;28;20211;-65
2021/08/30 14:22:25;;;;;;;6.20;5.50;;;;;;;;;;4971031;28;20220;-65
2021/08/30 14:25:11;;;;;;;6.20;5.70;;;;;;;;;;4970396;28;20334;-65
2021/08/30 14:27:57;;;;;;;5.67;5.27;;;;;;;;;;4971025;28;20203;-65
2021/08/30 14:30:43;;;;;;;6.27;5.77;;;;;;;;;;4971054;28;20225;-64
2021/08/30 14:33:28;;;;;;;7.87;6.23;;;;;;;;;;4984349;28;20219;-65
2021/08/30 14:36:13;;;;;;;7.80;7.10;;;;;;;;;;4987482;28;21467;-65
2021/08/30 14:38:58;;;;;;;9.03;7.47;;;;;;;;;;4970824;28;20225;-64
2021/08/30 14:41:43;;;;;;;8.87;7.73;;;;;;;;;;4970683;28;20227;-64
2021/08/30 14:44:29;;;;;;;8.93;8.13;;;;;;;;;;4982195;28;20207;-64
2021/08/30 14:47:14;;;;;;;8.23;7.43;;;;;;;;;;4990158;28;20685;-64
2021/08/30 14:49:59;;;;;;;7.37;6.60;;;;;;;;;;4989941;28;20250;-65
2021/08/30 14:52:44;;;;;;;8.67;7.87;;;;;;;;;;4989799;28;20219;-65
2021/08/30 14:55:29;;;;;;;7.30;6.67;;;;;;;;;;4988059;28;20215;-64
2021/08/30 14:58:14;;;;;;;8.97;8.07;;;;;;;;;;4986952;28;20903;-64
2021/08/30 15:01:01;;;;;;;8.47;7.57;;;;;;;;;;4985593;28;20600;-64
2021/08/30 15:03:46;;;;;;;9.23;7.90;;;;;;;;;;4989761;28;20602;-64
2021/08/30 15:06:31;;;;;;;8.83;7.27;;;;;;;;;;4988211;28;20242;-64
2021/08/30 15:09:17;;;;;;;9.03;8.10;;;;;;;;;;4989812;28;20734;-65
2021/08/30 15:12:02;;;;;;;8.97;7.30;;;;;;;;;;4990079;28;20219;-65
2021/08/30 15:14:47;;;;;;;9.53;8.47;;;;;;;;;;4969851;28;20590;-64
2021/08/30 15:17:33;;;;;;;9.43;8.53;;;;;;;;;;4970326;28;20208;-64
2021/08/30 15:20:18;;;;;;;11.30;8.57;;;;;;;;;;4970162;28;20211;-65
2021/08/30 15:23:03;;;;;;;9.83;8.40;;;;;;;;;;4970377;28;20871;-65
2021/08/30 15:25:48;;;;;;;8.20;7.10;;;;;;;;;;4969270;28;20234;-64
2021/08/30 15:28:33;;;;;;;9.70;7.43;;;;;;;;;;4981957;28;20212;-64
2021/08/30 15:31:18;;;;;;;7.63;6.90;;;;;;;;;;4986857;28;20320;-65
2021/08/30 15:34:04;;;;;;;10.77;7.37;;;;;;;;;;4988304;28;20204;-63
2021/08/30 15:36:50;;;;;;;8.00;7.20;;;;;;;;;;4970008;28;20337;-64
2021/08/30 15:39:35;;;;;;;9.70;7.90;;;;;;;;;;4985374;28;20437;-63
2021/08/30 15:42:20;;;;;;;9.60;7.80;;;;;;;;;;4981435;28;20329;-64
2021/08/30 15:45:07;;;;;;;8.70;7.40;;;;;;;;;;4986523;28;20216;-64
2021/08/30 15:47:52;;;;;;;8.17;7.13;;;;;;;;;;4987945;28;20211;-65
2021/08/30 15:50:38;;;;;;;10.80;7.47;;;;;;;;;;4989140;28;20288;-64
2021/08/30 15:53:23;;;;;;;9.27;7.57;;;;;;;;;;4988067;28;20693;-64
2021/08/30 15:56:10;;;;;;;10.80;7.17;;;;;;;;;;4988228;28;20252;-65
2021/08/30 15:58:56;;;;;;;8.73;6.93;;;;;;;;;;4986763;28;20226;-64
2021/08/30 16:01:41;;;;;;;10.10;7.07;;;;;;;;;;4986639;28;20319;-65
2021/08/30 16:04:26;;;;;;;10.15;8.50;;;;;;;;;;4985996;28;20437;-64
2021/08/30 16:07:12;;;;;;;7.03;6.30;;;;;;;;;;4986157;28;20273;-66
2021/08/30 16:09:57;;;;;;;9.23;6.67;;;;;;;;;;4993053;28;20587;-64
2021/08/30 16:12:42;;;;;;;9.10;6.40;;;;;;;;;;4987938;28;20242;-64
2021/08/30 16:15:28;;;;;;;7.50;6.80;;;;;;;;;;4988299;28;20591;-64
2021/08/30 16:18:13;;;;;;;7.80;7.00;;;;;;;;;;4988778;28;20203;-64
2021/08/30 16:20:58;;;;;;;10.63;7.40;;;;;;;;;;4987650;28;20344;-64
2021/08/30 16:23:44;;;;;;;10.20;7.50;;;;;;;;;;4988514;28;20213;-64
2021/08/30 16:26:29;;;;;;;9.43;7.40;;;;;;;;;;4988538;28;20227;-64
2021/08/30 16:29:15;;;;;;;10.87;7.30;;;;;;;;;;4987627;28;20229;-64
2021/08/30 16:32:01;;;;;;;10.63;8.57;;;;;;;;;;4987390;28;20256;-64
2021/08/30 16:34:46;;;;;;;10.03;8.60;;;;;;;;;;4987800;28;20215;-65
2021/08/30 16:37:32;;;;;;;11.13;8.33;;;;;;;;;;4988379;28;20209;-64
2021/08/30 16:40:19;;;;;;;11.23;8.50;;;;;;;;;;4987679;28;20220;-64
2021/08/30 16:43:04;;;;;;;8.43;6.90;;;;;;;;;;4988404;28;20213;-64
2021/08/30 16:45:49;;;;;;;9.88;7.25;;;;;;;;;;4987238;28;20808;-64
2021/08/30 16:48:34;;;;;;;9.30;6.83;;;;;;;;;;4988342;28;20208;-64
2021/08/30 16:51:19;;;;;;;8.13;6.80;;;;;;;;;;4997302;28;20325;-64
2021/08/30 16:54:04;;;;;;;7.90;6.90;;;;;;;;;;4995094;28;20210;-64
2021/08/30 16:56:50;;;;;;;10.20;7.40;;;;;;;;;;4986201;28;20286;-64
2021/08/30 16:59:35;;;;;;;8.57;7.67;;;;;;;;;;5000014;28;20585;-63
2021/08/30 17:02:20;;;;;;;7.80;6.90;;;;;;;;;;4998321;28;20291;-64
2021/08/30 17:05:09;;;;;;;8.87;7.13;;;;;;;;;;4992925;28;21131;-64
2021/08/30 17:07:54;;;;;;;9.03;7.47;;;;;;;;;;4995976;28;20199;-64
2021/08/30 17:10:39;;;;;;;10.05;8.93;;;;;;;;;;4986890;28;20481;-64
2021/08/30 17:13:25;;;;;;;8.40;7.60;;;;;;;;;;4994285;28;20208;-64
2021/08/30 17:16:10;;;;;;;8.57;7.43;;;;;;;;;;4998658;28;20282;-64
2021/08/30 17:18:55;;;;;;;9.00;8.10;;;;;;;;;;4987174;28;20781;-64
2021/08/30 17:21:40;;;;;;;9.80;8.03;;;;;;;;;;4996427;28;20243;-64
2021/08/30 17:24:25;;;;;;;9.40;7.80;;;;;;;;;;4995253;28;20211;-64
2021/08/30 17:27:10;;;;;;;9.97;8.53;;;;;;;;;;4997906;28;20284;-64
2021/08/30 17:29:59;;;;;;;8.67;7.87;;;;;;;;;;5003354;28;20288;-64
2021/08/30 17:32:44;;;;;;;8.63;7.87;;;;;;;;;;4991920;28;20231;-64
2021/08/30 17:35:29;;;;;;;8.13;7.37;;;;;;;;;;4990482;28;20259;-64
2021/08/30 17:38:14;;;;;;;8.50;7.70;;;;;;;;;;5000614;28;20222;-64
2021/08/30 17:40:59;;;;;;;8.40;7.70;;;;;;;;;;4996459;28;20240;-63
2021/08/30 17:43:44;;;;;;;9.20;8.27;;;;;;;;;;4993960;28;20288;-63
2021/08/30 17:46:31;;;;;;;9.60;8.50;;;;;;;;;;5003125;28;20222;-64
2021/08/30 17:49:17;;;;;;;9.03;8.13;;;;;;;;;;4988718;28;20219;-63
2021/08/30 17:52:02;;;;;;;9.40;8.50;;;;;;;;;;4998763;28;20312;-64
2021/08/30 17:54:47;;;;;;;9.37;8.23;;;;;;;;;;5003346;28;20587;-63
2021/08/30 17:57:34;;;;;;;8.80;7.90;;;;;;;;;;5003153;28;20203;-63
2021/08/30 18:00:21;;;;;;;9.20;8.30;;;;;;;;;;4991395;28;20763;-64
2021/08/30 18:03:07;;;;;;;8.93;8.07;;;;;;;;;;4998566;28;20210;-64
2021/08/30 18:05:52;;;;;;;10.13;8.27;;;;;;;;;;4994976;28;20223;-64
2021/08/30 18:08:36;;;;;;;9.87;8.93;;;;;;;;;;4993622;28;20578;-65
2021/08/30 18:11:21;;;;;;;10.83;9.00;;;;;;;;;;4994965;28;20316;-64
2021/08/30 18:14:06;;;;;;;9.27;8.37;;;;;;;;;;4987177;28;20628;-64
2021/08/30 18:16:51;;;;;;;10.38;9.38;;;;;;;;;;4986979;28;20663;-63
2021/08/30 18:19:38;;;;;;;10.13;9.20;;;;;;;;;;4994416;28;20207;-64
2021/08/30 18:22:23;;;;;;;10.10;9.20;;;;;;;;;;4992511;28;20227;-63
2021/08/30 18:25:08;;;;;;;10.10;9.20;;;;;;;;;;4988914;28;20203;-63
2021/08/30 18:27:53;;;;;;;10.70;9.60;;;;;;;;;;4994464;28;20226;-64
2021/08/30 18:30:38;;;;;;;9.80;8.90;;;;;;;;;;4994944;28;20211;-63
2021/08/30 18:33:23;;;;;;;9.83;8.87;;;;;;;;;;4998089;28;20207;-63
2021/08/30 18:36:10;;;;;;;10.93;9.50;;;;;;;;;;4993006;28;20210;-64
2021/08/30 18:38:55;;;;;;;10.27;9.03;;;;;;;;;;4991666;28;20544;-64
2021/08/30 18:41:40;;;;;;;9.97;8.97;;;;;;;;;;4999031;28;20227;-64
2021/08/30 18:44:25;;;;;;;10.40;9.50;;;;;;;;;;4993791;28;20573;-64
2021/08/30 18:47:10;;;;;;;10.63;9.63;;;;;;;;;;4988216;28;20821;-64
2021/08/30 18:49:56;;;;;;;10.53;8.87;;;;;;;;;;4993091;28;20207;-64
2021/08/30 18:52:42;;;;;;;10.70;9.60;;;;;;;;;;5007572;28;20364;-64
2021/08/30 18:55:28;;;;;;;10.47;9.67;;;;;;;;;;4993804;28;20233;-64
2021/08/30 18:58:14;;;;;;;10.73;9.70;;;;;;;;;;4995848;28;20211;-64
2021/08/30 19:00:58;;;;;;;11.65;10.65;;;;;;;;;;4986715;28;20515;-64
2021/08/30 19:03:43;;;;;;;11.30;10.20;;;;;;;;;;4992866;28;20207;-64
2021/08/30 19:06:30;;;;;;;10.20;9.30;;;;;;;;;;4989241;28;20349;-64
2021/08/30 19:09:16;;;;;;;10.60;9.60;;;;;;;;;;4991893;28;20895;-65
2021/08/30 19:12:02;;;;;;;10.93;9.93;;;;;;;;;;4993437;28;20326;-64
2021/08/30 19:14:46;;;;;;;10.73;9.87;;;;;;;;;;5001137;28;20293;-64
2021/08/30 19:17:32;;;;;;;11.13;10.13;;;;;;;;;;4999714;28;20214;-65
2021/08/30 19:20:16;;;;;;;11.13;9.90;;;;;;;;;;4991261;28;20211;-64
2021/08/30 19:23:01;;;;;;;11.67;10.57;;;;;;;;;;4996016;28;20962;-64
2021/08/30 19:25:47;;;;;;;11.90;9.87;;;;;;;;;;4990848;28;20426;-63
2021/08/30 19:28:33;;;;;;;10.83;9.87;;;;;;;;;;5005690;28;20241;-64
2021/08/30 19:31:19;;;;;;;11.33;10.43;;;;;;;;;;4998176;28;20606;-64
2021/08/30 19:34:04;;;;;;;10.67;9.77;;;;;;;;;;4987528;28;20222;-63
2021/08/30 19:36:50;;;;;;;11.40;10.30;;;;;;;;;;4996538;28;20214;-64
2021/08/30 19:39:36;;;;;;;11.57;10.53;;;;;;;;;;4993111;28;20222;-64
2021/08/30 19:42:23;;;;;;;11.47;10.37;;;;;;;;;;4993690;28;20232;-64
2021/08/30 19:45:08;;;;;;;12.20;11.00;;;;;;;;;;4987765;28;20340;-64
2021/08/30 19:47:54;;;;;;;11.70;10.60;;;;;;;;;;4986233;28;20733;-64
2021/08/30 19:50:38;;;;;;;11.70;10.63;;;;;;;;;;4991732;28;20261;-64
2021/08/30 19:53:23;;;;;;;12.17;11.07;;;;;;;;;;4986514;28;20285;-62
2021/08/30 19:56:08;;;;;;;12.40;11.30;;;;;;;;;;4985220;28;20285;-64
2021/08/30 19:58:54;;;;;;;12.43;11.13;;;;;;;;;;4988338;28;20207;-64
2021/08/30 21:17:16;;;;;;;16.03;14.50;;;;;;;;;;5301658;23;20271;-65
2021/08/30 21:20:01;;;;;;;15.87;14.27;;;;;;;;;;4970410;28;20286;-64
2021/08/30 21:22:46;;;;;;;16.33;14.83;;;;;;;;;;4959020;28;20209;-65
2021/08/30 21:25:31;;;;;;;15.70;14.20;;;;;;;;;;4958299;28;20250;-66
2021/08/30 21:28:16;;;;;;;15.07;13.63;;;;;;;;;;4975468;28;20223;-66
2021/08/30 21:31:01;;;;;;;16.37;14.77;;;;;;;;;;4970778;28;20219;-65
2021/08/30 21:33:47;;;;;;;17.13;15.43;;;;;;;;;;4957668;28;20591;-65
2021/08/30 21:36:32;;;;;;;18.13;16.33;;;;;;;;;;4958790;28;20896;-65
2021/08/30 21:39:17;;;;;;;17.20;15.47;;;;;;;;;;4971487;28;20728;-66
2021/08/30 21:42:02;;;;;;;16.17;14.57;;;;;;;;;;4971614;28;20212;-65
2021/08/30 21:44:47;;;;;;;17.47;15.77;;;;;;;;;;4969302;28;20216;-65
2021/08/30 21:47:31;;;;;;;18.70;16.23;;;;;;;;;;4963027;28;20734;-66
2021/08/30 21:50:18;;;;;;;19.13;16.07;;;;;;;;;;4961386;28;20212;-66
2021/08/30 21:53:03;;;;;;;16.87;14.97;;;;;;;;;;4971066;28;20216;-65
2021/08/30 21:55:49;;;;;;;17.03;15.27;;;;;;;;;;4969903;28;20323;-65
2021/08/30 21:58:34;;;;;;;18.67;15.47;;;;;;;;;;4970959;28;20614;-65
2021/08/30 22:01:18;;;;;;;16.83;14.67;;;;;;;;;;4969578;28;20744;-66
2021/08/30 22:04:03;;;;;;;16.10;14.60;;;;;;;;;;4969586;28;20254;-66
2021/08/30 22:06:50;;;;;;;17.57;15.70;;;;;;;;;;4970003;28;20231;-66
2021/08/30 22:09:34;;;;;;;17.87;16.10;;;;;;;;;;4970910;28;20227;-66
2021/08/30 22:12:19;;;;;;;18.63;16.70;;;;;;;;;;4970689;28;20216;-65
2021/08/30 22:15:05;;;;;;;17.13;15.43;;;;;;;;;;4970694;28;20274;-65
2021/08/30 22:17:50;;;;;;;17.23;15.53;;;;;;;;;;4971198;28;20276;-65
2021/08/30 22:20:35;;;;;;;18.07;15.40;;;;;;;;;;4969861;28;20208;-66
2021/08/30 22:23:21;;;;;;;17.63;15.90;;;;;;;;;;4970523;28;20302;-66
2021/08/30 22:26:06;;;;;;;18.17;16.23;;;;;;;;;;4967604;28;20240;-65
2021/08/30 22:28:51;;;;;;;19.73;17.63;;;;;;;;;;4961316;28;20281;-66
2021/08/30 22:31:37;;;;;;;18.90;16.90;;;;;;;;;;4951846;29;20587;-65
2021/08/30 22:34:22;;;;;;;24.60;17.80;;;;;;;;;;4953596;28;20219;-65
2021/08/30 22:37:07;;;;;;;23.23;18.53;;;;;;;;;;4970395;28;20270;-66